createdAt,value
2019-05-18T00:01:37.183Z,31.70
2019-05-18T00:06:42.487Z,24.37
2019-05-18T00:16:59.107Z,25.07
2019-05-18T00:22:04.463Z,24.43
2019-05-18T00:27:09.717Z,20.83
2019-05-18T00:32:15.043Z,21.40
2019-05-18T00:37:20.291Z,17.23
2019-05-18T00:42:25.571Z,20.50
2019-05-18T00:47:40.888Z,18.20
2019-05-18T00:52:37.788Z,19.27
2019-05-18T00:57:43.056Z,24.17
2019-05-18T01:02:48.319Z,18.33
2019-05-18T01:07:53.603Z,21.57
2019-05-18T01:12:58.905Z,26.10
2019-05-18T01:18:04.351Z,17.33
2019-05-18T01:23:09.655Z,20.60
2019-05-18T01:28:14.930Z,11.73
2019-05-18T01:33:20.048Z,14.20
2019-05-18T01:38:25.280Z,19.60
2019-05-18T01:43:30.511Z,17.63
2019-05-18T01:48:35.726Z,22.47
2019-05-18T01:53:40.923Z,25.10
2019-05-18T01:58:46.262Z,21.30
2019-05-18T02:03:51.690Z,24.60
2019-05-18T02:08:56.925Z,26.57
2019-05-18T02:14:02.366Z,17.10
2019-05-18T02:19:07.591Z,23.87
2019-05-18T02:24:12.838Z,24.17
2019-05-18T02:29:18.138Z,25.77
2019-05-18T02:34:23.350Z,25.53
2019-05-18T02:39:28.591Z,21.97
2019-05-18T02:44:33.939Z,20.87
2019-05-18T02:49:39.283Z,18.27
2019-05-18T02:54:44.607Z,23.67
2019-05-18T02:59:49.826Z,22.13
2019-05-18T03:04:55.163Z,18.73
2019-05-18T03:10:00.240Z,19.77
2019-05-18T03:15:05.730Z,15.97
2019-05-18T03:20:11.401Z,26.07
2019-05-18T03:25:16.771Z,18.13
2019-05-18T03:30:22.089Z,20.67
2019-05-18T03:35:27.372Z,19.63
2019-05-18T03:40:32.598Z,20.67
2019-05-18T03:45:37.823Z,22.93
2019-05-18T03:50:43.682Z,25.13
2019-05-18T03:55:48.905Z,27.20
2019-05-18T04:00:54.184Z,27.43
2019-05-18T04:05:59.501Z,28.77
2019-05-18T04:11:04.915Z,27.33
2019-05-18T04:16:10.224Z,28.30
2019-05-18T04:21:15.596Z,33.13
2019-05-18T04:26:20.779Z,28.10
2019-05-18T04:31:26.005Z,30.67
2019-05-18T04:36:31.268Z,34.37
2019-05-18T04:41:36.612Z,33.00
2019-05-18T04:46:41.927Z,34.23
2019-05-18T04:51:47.060Z,29.00
2019-05-18T04:56:52.304Z,34.17
2019-05-18T05:01:57.644Z,38.47
2019-05-18T05:07:02.775Z,39.63
2019-05-18T05:12:08.107Z,35.20
2019-05-18T05:17:13.312Z,49.03
2019-05-18T05:22:18.719Z,38.27
2019-05-18T05:27:23.999Z,37.37
2019-05-18T05:32:29.322Z,39.83
2019-05-18T05:37:34.655Z,44.03
2019-05-18T05:42:39.955Z,37.20
2019-05-18T05:47:45.165Z,38.07
2019-05-18T05:52:50.364Z,47.20
2019-05-18T05:57:55.573Z,43.27
2019-05-18T06:03:00.798Z,45.40
2019-05-18T06:08:06.290Z,47.27
2019-05-18T06:13:11.631Z,41.53
2019-05-18T06:18:16.898Z,51.37
2019-05-18T06:23:22.217Z,42.53
2019-05-18T06:28:27.642Z,54.63
2019-05-18T06:33:32.805Z,39.60
2019-05-18T06:38:38.294Z,40.63
2019-05-18T06:43:43.635Z,59.80
2019-05-18T06:48:48.927Z,46.03
2019-05-18T06:53:54.406Z,44.50
2019-05-18T06:59:00.920Z,51.23
2019-05-18T07:04:06.292Z,50.10
2019-05-18T07:09:14.078Z,46.47
2019-05-18T07:14:25.729Z,48.40
2019-05-18T07:19:25.734Z,41.37
2019-05-18T07:24:31.105Z,42.47
2019-05-18T07:29:36.432Z,39.03
2019-05-18T07:34:41.670Z,39.43
2019-05-18T07:39:46.978Z,36.63
2019-05-18T07:48:57.148Z,44.47
2019-05-18T07:54:01.723Z,40.07
2019-05-18T07:59:06.783Z,31.27
2019-05-18T08:04:11.628Z,35.17
2019-05-18T08:09:16.399Z,37.80
2019-05-18T08:14:21.387Z,33.80
2019-05-18T08:19:26.391Z,37.70
2019-05-18T08:24:31.647Z,39.50
2019-05-18T08:29:36.952Z,32.97
2019-05-18T08:34:41.628Z,28.07
2019-05-18T08:39:46.295Z,29.40
2019-05-18T08:44:51.106Z,35.63
2019-05-18T08:49:55.788Z,32.57
2019-05-18T08:55:00.599Z,39.30
2019-05-18T09:00:05.834Z,32.40
2019-05-18T09:05:11.690Z,32.97
2019-05-18T09:10:16.666Z,36.80
2019-05-18T09:15:22.599Z,26.70
2019-05-18T09:20:27.827Z,32.10
2019-05-18T09:25:32.719Z,24.77
2019-05-18T09:30:37.790Z,25.73
2019-05-18T09:35:42.584Z,29.93
2019-05-18T09:40:47.155Z,26.90
2019-05-18T09:45:51.932Z,27.30
2019-05-18T09:50:56.735Z,28.87
2019-05-18T09:56:01.501Z,25.43
2019-05-18T10:01:06.327Z,23.67
2019-05-18T10:06:11.461Z,28.57
2019-05-18T10:11:16.293Z,24.60
2019-05-18T10:16:20.902Z,29.40
2019-05-18T10:21:25.738Z,29.93
2019-05-18T10:26:30.498Z,24.90
2019-05-18T10:31:35.267Z,31.50
2019-05-18T10:36:40.239Z,28.47
2019-05-18T10:41:44.983Z,23.63
2019-05-18T10:46:50.162Z,24.43
2019-05-18T10:51:55.383Z,26.17
2019-05-18T10:57:00.054Z,28.83
2019-05-18T11:02:05.715Z,31.17
2019-05-18T11:07:10.340Z,26.20
2019-05-18T11:12:16.290Z,28.80
2019-05-18T11:17:21.205Z,28.47
2019-05-18T11:22:26.471Z,23.27
2019-05-18T11:27:31.541Z,26.87
2019-05-18T11:32:37.166Z,20.93
2019-05-18T11:37:42.170Z,23.13
2019-05-18T11:42:47.366Z,21.63
2019-05-18T11:47:52.674Z,22.70
2019-05-18T11:52:57.885Z,23.73
2019-05-18T11:58:02.659Z,20.20
2019-05-18T12:03:07.239Z,20.93
2019-05-18T12:08:11.901Z,25.13
2019-05-18T12:13:17.093Z,23.67
2019-05-18T12:18:21.951Z,19.03
2019-05-18T12:23:26.754Z,19.40
2019-05-18T12:28:31.639Z,23.37
2019-05-18T12:33:37.012Z,25.00
2019-05-18T12:38:41.715Z,18.53
2019-05-18T12:43:46.991Z,20.87
2019-05-18T12:48:51.750Z,20.77
2019-05-18T12:53:56.504Z,18.13
2019-05-18T12:59:01.255Z,22.03
2019-05-18T13:04:06.086Z,16.50
2019-05-18T13:09:11.483Z,20.47
2019-05-18T13:14:16.602Z,18.00
2019-05-18T13:19:21.488Z,23.33
2019-05-18T13:24:26.289Z,17.97
2019-05-18T13:29:31.092Z,12.50
2019-05-18T13:34:36.243Z,13.87
2019-05-18T13:39:40.894Z,16.87
2019-05-18T13:44:45.545Z,16.63
2019-05-18T13:49:50.380Z,13.83
2019-05-18T13:55:03.611Z,19.07
2019-05-18T14:00:02.044Z,18.73
2019-05-18T14:05:07.194Z,18.67
2019-05-18T14:10:12.722Z,16.43
2019-05-18T14:15:17.872Z,12.63
2019-05-18T14:20:26.064Z,18.20
2019-05-18T14:25:29.439Z,17.60
2019-05-18T14:30:34.195Z,19.50
2019-05-18T14:35:39.039Z,15.93
2019-05-18T14:40:43.989Z,15.43
2019-05-18T14:45:49.536Z,23.67
2019-05-18T14:50:55.114Z,20.23
2019-05-18T14:56:00.032Z,18.77
2019-05-18T15:01:04.691Z,18.43
2019-05-18T15:06:09.461Z,18.73
2019-05-18T15:11:14.211Z,19.40
2019-05-18T15:16:18.990Z,20.90
2019-05-18T15:21:24.344Z,17.17
2019-05-18T15:26:29.046Z,16.90
2019-05-18T15:31:33.765Z,16.57
2019-05-18T15:36:38.548Z,27.17
2019-05-18T15:41:43.413Z,19.93
2019-05-18T15:46:48.196Z,16.00
2019-05-18T15:51:53.495Z,19.93
2019-05-18T15:56:58.137Z,15.67
2019-05-18T16:02:06.481Z,15.10
2019-05-18T16:07:09.459Z,13.90
2019-05-18T16:12:14.332Z,16.40
2019-05-18T16:17:19.068Z,11.53
2019-05-18T16:22:24.344Z,15.90
2019-05-18T16:27:29.915Z,18.33
2019-05-18T16:32:35.046Z,12.23
2019-05-18T16:37:40.367Z,14.90
2019-05-18T16:42:46.664Z,13.20
2019-05-18T16:47:51.494Z,15.40
2019-05-18T16:52:56.416Z,16.00
2019-05-18T16:58:01.051Z,18.43
2019-05-18T17:03:05.681Z,15.63
2019-05-18T17:08:10.507Z,15.63
2019-05-18T17:13:15.638Z,16.07
2019-05-18T17:18:20.273Z,17.30
2019-05-18T17:23:25.214Z,8.60
2019-05-18T17:28:30.209Z,19.77
2019-05-18T17:33:34.957Z,16.77
2019-05-18T17:38:39.641Z,18.20
2019-05-18T17:43:44.656Z,20.47
2019-05-18T17:54:00.046Z,15.10
2019-05-18T17:59:04.665Z,22.20
2019-05-18T18:04:09.264Z,14.80
2019-05-18T18:09:13.987Z,15.10
2019-05-18T18:14:18.832Z,13.57
2019-05-18T18:24:28.259Z,10.83
2019-05-18T18:29:32.944Z,19.97
2019-05-18T18:34:37.580Z,12.93
2019-05-18T18:39:42.305Z,18.77
2019-05-18T18:44:47.186Z,21.33
2019-05-18T18:49:51.796Z,12.13
2019-05-18T19:05:57.918Z,17.23
2019-05-18T19:16:13.756Z,19.07
2019-05-18T19:21:18.561Z,19.10
2019-05-18T19:26:23.591Z,19.03
2019-05-18T19:31:28.470Z,21.50
2019-05-18T19:36:33.190Z,17.80
2019-05-18T19:41:37.870Z,24.43
2019-05-18T19:46:42.669Z,21.10
2019-05-18T19:51:47.289Z,16.07
2019-05-18T19:56:52.212Z,26.47
2019-05-18T20:01:57.090Z,19.93
2019-05-18T20:07:01.840Z,21.23
2019-05-18T20:12:06.609Z,25.20
2019-05-18T20:17:11.382Z,23.93
2019-05-18T20:22:16.030Z,21.67
2019-05-18T20:27:20.927Z,21.73
2019-05-18T20:32:25.926Z,29.63
2019-05-18T20:37:30.859Z,21.80
2019-05-18T20:42:37.686Z,25.60
2019-05-18T20:47:42.012Z,25.60
2019-05-18T20:52:46.849Z,26.20
2019-05-18T20:57:51.530Z,21.17
2019-05-18T21:02:56.370Z,21.83
2019-05-18T21:08:01.169Z,30.90
2019-05-18T21:13:05.873Z,22.70
2019-05-18T21:18:10.650Z,24.73
2019-05-18T21:23:15.587Z,28.07
2019-05-18T21:28:20.431Z,17.23
2019-05-18T21:33:25.146Z,19.47
2019-05-18T21:38:29.798Z,24.37
2019-05-18T21:43:34.721Z,26.90
2019-05-18T21:48:39.409Z,27.67
2019-05-18T21:53:44.169Z,29.83
2019-05-18T21:58:48.965Z,26.67
2019-05-18T22:03:53.669Z,30.43
2019-05-18T22:08:58.513Z,29.47
2019-05-18T22:14:03.556Z,31.13
2019-05-18T22:19:08.358Z,27.43
2019-05-18T22:24:13.449Z,28.70
2019-05-18T22:29:18.099Z,36.50
2019-05-18T22:34:22.912Z,36.10
2019-05-18T22:39:27.642Z,37.73
2019-05-18T22:44:33.429Z,37.63
2019-05-18T22:49:38.170Z,37.80
2019-05-18T22:54:42.834Z,37.90
2019-05-18T22:59:47.981Z,41.77
2019-05-18T23:04:52.729Z,38.43
2019-05-18T23:09:57.543Z,36.60
2019-05-18T23:15:02.229Z,36.50
2019-05-18T23:20:07.542Z,35.10
2019-05-18T23:25:12.548Z,45.17
2019-05-18T23:30:17.394Z,31.57
2019-05-18T23:35:22.366Z,29.70
2019-05-18T23:40:27.150Z,29.83
2019-05-18T23:45:31.863Z,31.73
2019-05-18T23:50:36.570Z,28.37
2019-05-18T23:55:41.305Z,27.03
